Time;durP1;ratioP1;P1;durP2;ratioP2;P2;SDS_P1;SDS_P2;PMS_P1;PMS_P2;Temp;Humidity;BMP_temperature;BMP_pressure;BME280_temperature;BME280_humidity;BME280_pressure;Samples;Min_cycle;Max_cycle;Signal;HPM_P1;HPM_P2
2023/08/31 07:01:23;;;;;;;0.20;0.20;;;18.40;99.90;24.70;100839.00;;;;6243056;22;1407799;-70
2023/08/31 07:03:57;;;;;;;2.28;0.75;;;20.00;99.90;24.10;100835.00;;;;6340913;22;20174;-71
2023/08/31 07:06:26;;;;;;;0.20;0.20;;;20.50;99.90;24.80;100869.00;;;;6340256;22;20196;-70
2023/08/31 07:08:53;;;;;;;0.10;0.10;;;21.20;99.90;25.60;100852.00;;;;6340467;22;20512;-71
2023/08/31 07:11:21;;;;;;;0.15;0.15;;;21.20;99.90;26.70;100908.00;;;;6312878;22;20151;-71
2023/08/31 07:13:47;;;;;;;0.10;0.10;;;22.50;99.90;25.90;100912.00;;;;6313086;22;20151;-71
2023/08/31 07:16:19;;;;;;;0.10;0.10;;;22.00;99.90;26.00;100903.00;;;;6340524;22;20417;-71
2023/08/31 07:18:51;;;;;;;0.40;0.40;;;21.80;99.90;23.70;100886.00;;;;6338544;22;20234;-70
2023/08/31 07:21:19;;;;;;;2.35;0.43;;;21.10;99.90;22.10;100797.00;;;;6340007;22;20140;-69
2023/08/31 07:23:48;;;;;;;0.28;0.28;;;19.60;99.90;19.80;100792.00;;;;6339744;22;20604;-70
2023/08/31 07:26:22;;;;;;;0.10;0.10;;;18.40;99.90;21.10;100808.00;;;;6339973;22;20483;-70
2023/08/31 07:28:59;;;;;;;0.10;0.10;;;18.10;99.90;20.50;100812.00;;;;6340382;22;20143;-71
2023/08/31 07:31:25;;;;;;;1.80;1.75;;;17.90;99.90;20.80;100836.00;;;;6338758;22;20148;-70
2023/08/31 07:33:53;;;;;;;0.10;0.10;;;18.40;99.90;21.00;100826.00;;;;6338546;22;20573;-70
2023/08/31 07:36:19;;;;;;;0.75;0.57;;;18.40;99.90;19.90;100819.00;;;;6338304;22;20136;-70
2023/08/31 07:38:45;;;;;;;0.88;0.85;;;18.00;99.90;21.60;100837.00;;;;6338189;22;20154;-70
2023/08/31 07:41:11;;;;;;;0.55;0.55;;;18.60;99.90;24.20;100864.00;;;;6338570;22;20143;-71
2023/08/31 07:43:37;;;;;;;1.77;0.82;;;20.00;99.90;22.90;100828.00;;;;6338232;22;20167;-70
2023/08/31 07:46:08;;;;;;;0.10;0.10;;;19.80;99.90;20.30;100805.00;;;;6338005;22;20197;-70
2023/08/31 07:48:42;;;;;;;3.40;1.75;;;18.60;99.90;19.20;100836.00;;;;6312438;22;20193;-70
2023/08/31 07:51:22;;;;;;;0.60;0.60;;;17.80;99.90;19.50;100816.00;;;;6338097;22;20643;-70
2023/08/31 07:53:49;;;;;;;0.10;0.10;;;17.40;99.90;21.00;100851.00;;;;6338670;22;20193;-71
2023/08/31 07:56:15;;;;;;;0.10;0.10;;;18.30;99.90;23.40;100872.00;;;;6338518;22;20251;-71
2023/08/31 07:59:02;;;;;;;3.88;1.30;;;19.40;99.90;20.30;100850.00;;;;6338403;22;20148;-70
2023/08/31 08:01:41;;;;;;;0.38;0.35;;;19.00;99.90;22.00;100849.00;;;;6311978;22;20587;-71
2023/08/31 08:04:07;;;;;;;0.30;0.30;;;18.70;99.90;24.20;100883.00;;;;6312370;22;20187;-71
2023/08/31 08:06:35;;;;;;;0.10;0.10;;;20.00;99.90;24.30;100869.00;;;;6339376;22;20144;-72
2023/08/31 08:09:08;;;;;;;0.52;0.52;;;20.60;99.90;21.50;100837.00;;;;6339864;22;20174;-70
2023/08/31 08:11:35;;;;;;;0.90;0.65;;;19.50;99.90;20.10;100826.00;;;;6337918;22;20178;-70
2023/08/31 08:14:04;;;;;;;0.93;0.17;;;18.70;99.90;21.40;100855.00;;;;6339700;22;20132;-70
2023/08/31 08:16:35;;;;;;;0.10;0.10;;;18.90;99.90;20.70;100845.00;;;;6338297;22;20136;-70
2023/08/31 08:19:08;;;;;;;0.10;0.10;;;18.70;99.90;23.90;100868.00;;;;6338287;22;20218;-71
2023/08/31 08:21:45;;;;;;;0.15;0.15;;;19.80;99.90;23.00;100866.00;;;;6339625;22;20174;-71
2023/08/31 08:24:11;;;;;;;0.80;0.80;;;20.20;99.90;25.90;100849.00;;;;6312548;22;20232;-71
2023/08/31 08:26:39;;;;;;;0.10;0.10;;;21.60;99.90;27.50;100929.00;;;;6337939;22;20162;-72
2023/08/31 08:29:05;;;;;;;1.10;0.80;;;22.90;99.90;25.90;100985.00;;;;6339325;22;20223;-71
2023/08/31 08:31:43;;;;;;;0.10;0.10;;;23.30;99.90;23.00;100909.00;;;;6339630;22;20171;-71
2023/08/31 08:34:09;;;;;;;0.10;0.10;;;21.40;99.90;25.50;100893.00;;;;6339652;22;20135;-71
2023/08/31 08:36:37;;;;;;;0.70;0.20;;;21.70;99.90;24.30;100928.00;;;;6339536;22;20136;-71
2023/08/31 08:39:47;;;;;;;0.38;0.38;;;21.70;99.90;23.20;100886.00;;;;6338003;22;20172;-71
2023/08/31 08:42:18;;;;;;;0.50;0.50;;;20.90;99.90;22.90;100868.00;;;;6338473;22;20262;-71
2023/08/31 08:45:12;;;;;;;0.20;0.20;;;20.40;99.90;23.80;100895.00;;;;6338196;22;20218;-71
2023/08/31 08:47:45;;;;;;;0.10;0.10;;;20.80;99.90;24.70;100897.00;;;;6338024;22;20132;-71
2023/08/31 08:50:14;;;;;;;0.40;0.40;;;21.20;99.90;21.50;100860.00;;;;6337700;22;20136;-71
2023/08/31 08:52:45;;;;;;;0.10;0.10;;;20.20;99.90;24.00;100861.00;;;;6337956;22;20179;-71
2023/08/31 08:55:42;;;;;;;0.20;0.20;;;20.30;99.90;26.10;100927.00;;;;6339607;22;20152;-71
2023/08/31 08:58:11;;;;;;;0.10;0.10;;;22.00;99.90;26.90;100952.00;;;;6337997;22;20567;-71
2023/08/31 09:00:38;;;;;;;0.10;0.10;;;22.70;99.90;27.30;100994.00;;;;6337296;22;20172;-72
2023/08/31 09:03:11;;;;;;;1.00;1.00;;;23.50;99.90;27.60;100984.00;;;;6337893;22;20168;-72
2023/08/31 09:05:43;;;;;;;0.10;0.10;;;23.70;99.90;25.90;101026.00;;;;6312372;22;20155;-71
2023/08/31 09:08:26;;;;;;;0.40;0.40;;;23.10;99.90;23.10;100964.00;;;;6337815;22;20147;-71
2023/08/31 09:10:52;;;;;;;0.10;0.10;;;21.30;99.90;25.40;100912.00;;;;6311891;22;20162;-71
2023/08/31 09:13:18;;;;;;;0.10;0.10;;;21.60;99.90;22.00;100902.00;;;;6311751;22;20182;-71
2023/08/31 09:15:47;;;;;;;1.38;1.27;;;20.20;99.90;22.30;100880.00;;;;6337251;22;20591;-71
2023/08/31 09:18:23;;;;;;;0.20;0.20;;;20.10;99.90;21.80;100919.00;;;;6337743;22;20258;-71
2023/08/31 09:20:58;;;;;;;0.20;0.20;;;19.90;99.90;24.00;100937.00;;;;6339402;22;20147;-71
2023/08/31 09:23:25;;;;;;;0.20;0.20;;;20.40;99.90;23.70;100925.00;;;;6337890;22;20170;-71
2023/08/31 09:25:59;;;;;;;1.40;1.30;;;20.30;99.90;23.40;100937.00;;;;6312020;22;20594;-72
2023/08/31 09:28:30;;;;;;;0.57;0.57;;;20.70;99.90;22.00;100921.00;;;;6311939;22;20170;-71
2023/08/31 09:31:29;;;;;;;0.10;0.10;;;19.90;99.90;23.80;100888.00;;;;6337867;22;20164;-71
2023/08/31 09:34:14;;;;;;;3.20;1.08;;;20.40;99.90;25.50;100973.00;;;;6316681;22;20148;-71
2023/08/31 09:36:51;;;;;;;0.45;0.45;;;21.50;99.90;23.40;100985.00;;;;6337769;22;20136;-72
2023/08/31 09:39:20;;;;;;;0.20;0.20;;;21.30;99.90;24.40;100917.00;;;;6337450;22;20136;-72
2023/08/31 09:41:56;;;;;;;1.05;0.93;;;21.20;99.90;24.90;100974.00;;;;6311487;22;20214;-72
2023/08/31 09:44:34;;;;;;;0.35;0.32;;;21.50;99.90;22.10;100947.00;;;;6311672;22;20151;-71
2023/08/31 09:47:20;;;;;;;3.75;1.85;;;20.50;99.90;24.10;100932.00;;;;6311570;22;20575;-71
2023/08/31 09:49:49;;;;;;;0.10;0.10;;;20.70;99.90;24.90;100957.00;;;;6310069;22;20939;-72
2023/08/31 09:52:34;;;;;;;0.40;0.40;;;21.40;99.90;22.80;100968.00;;;;6337611;22;20187;-71
2023/08/31 09:55:11;;;;;;;0.65;0.65;;;21.00;99.90;22.50;100911.00;;;;6337501;22;20139;-71
2023/08/31 09:57:46;;;;;;;0.10;0.10;;;20.20;99.90;25.90;100947.00;;;;6337280;22;20135;-71
2023/08/31 10:00:15;;;;;;;1.88;1.27;;;21.60;99.90;22.30;100971.00;;;;6311261;22;20166;-71
2023/08/31 10:03:05;;;;;;;0.55;0.55;;;20.50;99.90;23.30;100935.00;;;;6336848;22;20175;-71
2023/08/31 10:05:39;;;;;;;0.50;0.50;;;20.40;99.90;24.20;100948.00;;;;6337251;22;20136;-71
2023/08/31 10:08:31;;;;;;;0.20;0.20;;;20.90;99.90;24.30;100962.00;;;;6311612;22;20164;-70
2023/08/31 10:11:03;;;;;;;0.47;0.47;;;21.60;99.90;24.40;100985.00;;;;6337478;22;20140;-71
2023/08/31 10:13:35;;;;;;;0.15;0.15;;;21.70;99.90;26.20;100991.00;;;;6337366;22;20576;-70
2023/08/31 10:16:04;;;;;;;0.20;0.20;;;22.30;99.90;26.60;100964.00;;;;6337638;22;20143;-72
2023/08/31 10:18:39;;;;;;;0.40;0.40;;;22.90;99.90;25.80;101027.00;;;;6336857;22;20560;-71
2023/08/31 10:33:34;;;;;;;0.10;0.10;;;21.60;99.90;25.50;100943.00;;;;5069971;28;20547;-71
2023/08/31 10:36:12;;;;;;;1.45;0.98;;;22.20;99.90;27.00;100988.00;;;;5048724;28;20194;-70
2023/08/31 10:38:55;;;;;;;0.22;0.22;;;23.10;99.90;24.70;101000.00;;;;5032472;28;20235;-70
2023/08/31 10:41:25;;;;;;;0.80;0.80;;;22.00;99.90;24.60;100996.00;;;;5055753;28;20257;-70
2023/08/31 10:44:20;;;;;;;0.85;0.85;;;21.60;99.90;23.20;101009.00;;;;5043427;28;20312;-71
2023/08/31 10:46:50;;;;;;;2.35;0.65;;;21.00;99.90;23.10;100963.00;;;;5043581;28;20225;-71
2023/08/31 10:49:37;;;;;;;0.22;0.22;;;20.40;99.90;23.30;100969.00;;;;5048137;28;20199;-71
2023/08/31 10:52:46;;;;;;;0.28;0.28;;;20.60;99.90;25.40;100999.00;;;;5048275;28;20683;-72
2023/08/31 10:55:32;;;;;;;0.10;0.10;;;21.90;99.90;26.70;100990.00;;;;5007575;28;20191;-72
2023/08/31 10:57:58;;;;;;;1.10;0.45;;;22.60;99.90;24.80;101022.00;;;;4991515;28;20254;-70
2023/08/31 11:00:53;;;;;;;1.35;0.57;;;22.60;99.90;25.30;100991.00;;;;5007769;28;20245;-70
2023/08/31 11:03:30;;;;;;;5.00;2.05;;;22.30;99.90;25.90;101011.00;;;;4991676;28;20729;-71
2023/08/31 11:05:58;;;;;;;3.85;2.10;;;22.70;99.90;24.70;101036.00;;;;5045811;28;20201;-70
2023/08/31 11:08:44;;;;;;;0.30;0.30;;;22.00;99.90;24.40;101039.00;;;;5049443;28;20183;-70
2023/08/31 11:11:22;;;;;;;0.20;0.20;;;21.60;99.90;26.80;100972.00;;;;5048398;28;20182;-71
2023/08/31 11:13:59;;;;;;;0.10;0.10;;;22.40;99.90;28.00;100959.00;;;;5048276;28;20740;-71
2023/08/31 11:16:32;;;;;;;0.13;0.13;;;23.50;99.90;24.00;101031.00;;;;5037520;28;20220;-71
2023/08/31 11:19:23;;;;;;;1.85;1.20;;;21.80;99.90;23.40;101038.00;;;;5048601;28;20667;-70
2023/08/31 11:22:02;;;;;;;0.30;0.30;;;21.30;99.90;23.60;101021.00;;;;5048560;28;20237;-70
2023/08/31 11:24:49;;;;;;;0.70;0.70;;;20.90;99.90;24.10;101000.00;;;;5020142;28;20547;-71
2023/08/31 11:27:26;;;;;;;0.60;0.60;;;20.90;99.90;24.00;101006.00;;;;5038013;28;20199;-70
2023/08/31 11:29:55;;;;;;;1.10;0.68;;;21.00;99.90;22.80;101008.00;;;;5064160;28;20347;-71
2023/08/31 11:32:29;;;;;;;0.10;0.10;;;20.70;99.90;25.60;101001.00;;;;5041642;28;20694;-70
2023/08/31 11:35:06;;;;;;;3.63;0.45;;;21.40;99.90;25.10;101010.00;;;;5049038;28;20551;-70
2023/08/31 11:37:38;;;;;;;0.10;0.10;;;21.90;99.90;24.90;101016.00;;;;5049163;28;20182;-70
2023/08/31 11:40:28;;;;;;;0.30;0.30;;;21.40;99.90;22.50;100991.00;;;;5031013;28;20174;-71
2023/08/31 11:43:00;;;;;;;0.47;0.47;;;20.40;99.90;23.00;100970.00;;;;5044851;28;20198;-70
2023/08/31 11:45:29;;;;;;;0.22;0.22;;;20.30;99.90;23.80;100975.00;;;;5035779;28;20220;-70
2023/08/31 11:47:59;;;;;;;1.58;0.60;;;20.50;99.90;23.30;100983.00;;;;5017826;28;20232;-70
2023/08/31 11:50:30;;;;;;;0.88;0.85;;;20.50;99.90;22.30;100962.00;;;;5034525;28;20194;-69
2023/08/31 11:53:04;;;;;;;0.98;0.90;;;20.10;99.90;21.80;100942.00;;;;5033926;28;20669;-69
2023/08/31 11:55:49;;;;;;;0.52;0.43;;;19.90;99.90;23.00;100952.00;;;;5034238;28;20194;-70
2023/08/31 11:58:24;;;;;;;0.30;0.30;;;20.20;99.90;22.90;100942.00;;;;5025573;28;20183;-69
2023/08/31 12:01:03;;;;;;;0.10;0.10;;;20.30;99.90;24.40;100952.00;;;;5031545;28;20324;-69
2023/08/31 12:03:44;;;;;;;0.10;0.10;;;20.70;99.90;25.70;100989.00;;;;5027985;28;20276;-69
2023/08/31 12:06:19;;;;;;;0.13;0.13;;;21.70;99.90;26.90;100991.00;;;;5029949;28;20179;-69
2023/08/31 12:08:49;;;;;;;0.10;0.10;;;22.60;99.90;27.30;101000.00;;;;5033936;28;20273;-69
2023/08/31 12:11:15;;;;;;;0.68;0.68;;;23.00;99.90;27.10;101005.00;;;;5033981;28;20186;-69
2023/08/31 12:14:06;;;;;;;0.10;0.10;;;23.20;99.90;24.80;101028.00;;;;5033675;28;20194;-69
2023/08/31 12:16:41;;;;;;;0.40;0.40;;;21.80;99.90;25.40;101015.00;;;;5028597;28;20191;-69
2023/08/31 12:19:12;;;;;;;2.00;1.08;;;22.00;99.90;24.20;101029.00;;;;5030276;28;20183;-70
2023/08/31 12:21:47;;;;;;;1.10;1.00;;;21.70;99.90;24.60;101032.00;;;;5064667;28;20187;-70
2023/08/31 12:24:24;;;;;;;0.32;0.32;;;21.70;99.90;23.60;101030.00;;;;5033771;28;20190;-69
2023/08/31 12:26:59;;;;;;;0.75;0.35;;;21.00;99.90;25.20;101017.00;;;;5031558;28;20237;-69
2023/08/31 12:29:27;;;;;;;0.43;0.40;;;21.40;99.90;25.40;101018.00;;;;5032987;28;20193;-69
2023/08/31 12:32:02;;;;;;;0.13;0.13;;;21.80;99.90;24.10;101011.00;;;;5013823;28;20222;-69
2023/08/31 12:34:34;;;;;;;0.20;0.20;;;21.20;99.90;25.50;101008.00;;;;5046886;28;20265;-70
2023/08/31 12:37:01;;;;;;;0.28;0.28;;;21.40;99.90;24.80;101025.00;;;;5033406;28;20187;-69
2023/08/31 12:39:42;;;;;;;0.70;0.70;;;21.70;99.90;23.30;101018.00;;;;5033469;28;20194;-69
2023/08/31 12:42:08;;;;;;;0.10;0.10;;;20.90;99.90;25.60;100990.00;;;;5033231;28;20190;-69
2023/08/31 12:44:39;;;;;;;0.77;0.77;;;21.50;99.90;23.40;100999.00;;;;5033612;28;20663;-69
2023/08/31 12:47:11;;;;;;;1.05;0.57;;;21.00;99.90;23.10;100996.00;;;;5017108;28;20179;-69
2023/08/31 12:49:37;;;;;;;0.30;0.28;;;20.80;99.90;25.20;100985.00;;;;5016794;28;20237;-69
2023/08/31 12:52:05;;;;;;;0.20;0.20;;;21.20;99.90;23.90;100987.00;;;;5033180;28;20260;-70
2023/08/31 12:54:50;;;;;;;0.40;0.40;;;21.00;99.90;24.60;100982.00;;;;5032862;28;20182;-69
2023/08/31 12:57:21;;;;;;;0.10;0.10;;;21.20;99.90;25.10;100935.00;;;;5015572;28;20209;-69
2023/08/31 12:59:50;;;;;;;2.63;0.40;;;21.20;99.90;22.70;100992.00;;;;5026528;28;20187;-69
2023/08/31 13:02:16;;;;;;;1.45;0.60;;;20.60;99.90;22.50;100985.00;;;;5033050;28;20195;-69
2023/08/31 13:04:47;;;;;;;0.40;0.40;;;20.40;99.90;23.30;100975.00;;;;5016324;28;20516;-68
2023/08/31 13:07:14;;;;;;;0.10;0.10;;;20.40;99.90;23.10;100962.00;;;;5032837;28;20190;-68
2023/08/31 13:09:45;;;;;;;0.52;0.52;;;20.30;99.90;22.30;100952.00;;;;5033198;28;20225;-69
2023/08/31 13:12:11;;;;;;;0.40;0.32;;;20.10;99.90;22.70;100932.00;;;;5032603;28;20210;-69
2023/08/31 13:14:38;;;;;;;0.55;0.55;;;19.90;99.90;22.10;100952.00;;;;5016165;28;20190;-69
2023/08/31 13:17:16;;;;;;;0.10;0.10;;;19.90;99.90;22.80;100938.00;;;;5034296;28;20174;-69
2023/08/31 13:20:03;;;;;;;1.00;0.90;;;19.90;99.90;21.90;100915.00;;;;5013399;28;20652;-67
2023/08/31 13:22:50;;;;;;;4.95;1.00;;;19.70;99.90;22.70;100924.00;;;;5017894;28;20653;-69
2023/08/31 13:25:21;;;;;;;0.40;0.40;;;20.00;99.90;22.10;100916.00;;;;5033223;28;20194;-68
2023/08/31 13:27:56;;;;;;;0.10;0.10;;;19.90;99.90;22.60;100925.00;;;;5032920;28;20606;-70
2023/08/31 13:30:25;;;;;;;2.28;0.28;;;20.00;99.90;21.90;100937.00;;;;5026847;28;20179;-69
2023/08/31 13:32:57;;;;;;;0.10;0.10;;;19.90;99.90;22.50;100920.00;;;;5032583;28;20299;-69
2023/08/31 13:35:23;;;;;;;0.20;0.20;;;19.80;99.90;23.60;100907.00;;;;5016442;28;20270;-70
2023/08/31 13:37:52;;;;;;;0.55;0.55;;;20.40;99.90;24.60;100956.00;;;;5032189;28;20178;-69
2023/08/31 13:40:18;;;;;;;0.70;0.52;;;21.00;99.90;24.30;100980.00;;;;5032129;28;20189;-69
2023/08/31 13:43:02;;;;;;;0.30;0.30;;;21.00;99.90;24.00;101008.00;;;;5033486;28;20209;-70
2023/08/31 13:45:37;;;;;;;0.10;0.10;;;21.20;99.90;25.30;100985.00;;;;5021699;28;20629;-69
2023/08/31 13:48:15;;;;;;;0.20;0.20;;;21.60;99.90;26.70;100993.00;;;;5032165;28;20193;-69
2023/08/31 13:50:53;;;;;;;0.20;0.20;;;22.30;99.90;24.70;101024.00;;;;5032049;28;20285;-69
2023/08/31 13:53:21;;;;;;;1.05;1.05;;;22.00;99.90;25.30;101008.00;;;;5032024;28;20248;-69
2023/08/31 13:55:47;;;;;;;3.10;0.68;;;21.80;99.90;24.90;101016.00;;;;5032299;28;20538;-69
2023/08/31 13:58:24;;;;;;;1.30;1.20;;;21.90;99.90;23.70;101026.00;;;;5031977;28;20186;-69
2023/08/31 14:00:56;;;;;;;0.65;0.60;;;21.20;99.90;24.00;101031.00;;;;5032508;28;20657;-69
2023/08/31 14:03:27;;;;;;;0.43;0.43;;;21.30;99.90;24.60;101014.00;;;;5031802;28;20199;-69
2023/08/31 14:06:03;;;;;;;2.65;0.75;;;21.30;99.90;24.00;100991.00;;;;5031400;28;20240;-69
2023/08/31 14:08:32;;;;;;;0.10;0.10;;;21.20;99.90;26.00;101008.00;;;;5031727;28;20179;-70
2023/08/31 14:10:58;;;;;;;0.25;0.25;;;21.80;99.90;26.60;100987.00;;;;5031758;28;20197;-69
2023/08/31 14:13:48;;;;;;;0.10;0.10;;;22.20;99.90;25.60;101001.00;;;;5032195;28;20214;-69
2023/08/31 14:16:14;;;;;;;1.02;0.30;;;22.20;99.90;26.10;100991.00;;;;5020672;28;20221;-70
2023/08/31 14:19:15;;;;;;;1.00;0.93;;;22.40;99.90;25.00;101013.00;;;;5031949;28;20221;-69
2023/08/31 14:21:41;;;;;;;0.50;0.50;;;22.10;99.90;23.50;101024.00;;;;5059374;28;20193;-69
2023/08/31 14:24:07;;;;;;;0.20;0.20;;;21.20;99.90;24.30;101022.00;;;;5031507;28;20189;-70
2023/08/31 14:26:45;;;;;;;1.25;0.82;;;21.00;99.90;25.90;100996.00;;;;5031549;28;20667;-69
2023/08/31 14:29:28;;;;;;;0.20;0.20;;;21.60;99.90;25.60;101017.00;;;;5016619;28;20188;-69
2023/08/31 14:32:17;;;;;;;0.47;0.47;;;21.80;99.90;24.20;101036.00;;;;5031249;28;20242;-68
2023/08/31 14:34:48;;;;;;;0.65;0.30;;;21.50;99.90;23.60;101039.00;;;;5030937;28;20429;-69
2023/08/31 14:37:27;;;;;;;0.10;0.10;;;21.00;99.90;24.50;101032.00;;;;5031764;28;20205;-69
2023/08/31 14:39:53;;;;;;;2.10;0.32;;;20.90;99.90;25.10;101028.00;;;;5031079;28;20240;-69
2023/08/31 14:42:41;;;;;;;0.10;0.10;;;21.40;99.90;25.90;101017.00;;;;5031719;28;20183;-70
2023/08/31 14:45:08;;;;;;;0.10;0.10;;;21.70;99.90;24.30;101039.00;;;;5024460;28;20230;-69
2023/08/31 14:47:51;;;;;;;0.10;0.10;;;21.40;99.90;25.50;100989.00;;;;5032876;28;20175;-69
2023/08/31 14:50:24;;;;;;;1.35;0.73;;;21.40;99.90;25.00;101022.00;;;;5033005;28;20190;-69
2023/08/31 14:52:53;;;;;;;0.20;0.20;;;21.50;99.90;24.30;101030.00;;;;5003444;28;20673;-69
2023/08/31 14:55:21;;;;;;;9.10;1.02;;;21.20;99.90;23.60;101047.00;;;;5026922;28;20197;-69
2023/08/31 14:57:49;;;;;;;0.40;0.40;;;20.90;99.90;24.20;101028.00;;;;5032574;28;20186;-67
2023/08/31 15:00:18;;;;;;;0.10;0.10;;;20.90;99.90;24.50;101024.00;;;;5031291;28;20657;-69
2023/08/31 15:02:55;;;;;;;0.80;0.80;;;20.90;99.90;23.30;101006.00;;;;5014871;28;20653;-69
2023/08/31 15:05:30;;;;;;;1.65;1.20;;;20.70;99.90;23.80;101005.00;;;;5032435;28;20187;-69
2023/08/31 15:07:56;;;;;;;0.68;0.68;;;20.70;99.90;23.50;101002.00;;;;5014299;28;20194;-68
2023/08/31 15:10:24;;;;;;;0.20;0.20;;;20.60;99.90;23.80;100994.00;;;;5031551;28;20191;-68
2023/08/31 15:12:58;;;;;;;1.30;0.82;;;20.70;99.90;25.10;101000.00;;;;5032537;28;20297;-69
2023/08/31 15:15:29;;;;;;;0.20;0.20;;;21.00;99.90;24.80;101020.00;;;;5007088;28;20195;-69
2023/08/31 15:17:55;;;;;;;0.10;0.10;;;21.30;99.90;23.90;101007.00;;;;5059742;28;20206;-69
2023/08/31 15:20:24;;;;;;;0.10;0.10;;;20.90;99.90;24.30;101020.00;;;;5018553;28;20206;-69
2023/08/31 15:22:59;;;;;;;0.98;0.98;;;20.70;99.90;23.20;101031.00;;;;5036137;28;20190;-69
2023/08/31 15:25:25;;;;;;;0.20;0.20;;;20.40;99.90;24.20;100979.00;;;;5036356;28;20214;-69
2023/08/31 15:27:51;;;;;;;0.22;0.22;;;20.50;99.90;24.70;101006.00;;;;5036092;28;20573;-69
2023/08/31 15:30:35;;;;;;;0.10;0.10;;;20.70;99.90;24.60;101012.00;;;;5018718;28;20179;-69
2023/08/31 15:33:21;;;;;;;2.85;0.60;;;20.90;99.90;24.10;101042.00;;;;5031662;28;20225;-69
2023/08/31 15:35:54;;;;;;;0.30;0.30;;;20.90;99.90;23.70;101031.00;;;;5034108;28;20199;-69
2023/08/31 15:38:19;;;;;;;0.20;0.20;;;20.70;99.90;23.70;101031.00;;;;5034210;28;20671;-69
2023/08/31 15:40:55;;;;;;;0.20;0.20;;;20.40;99.90;24.00;101018.00;;;;5041912;28;20191;-69
2023/08/31 15:43:26;;;;;;;0.10;0.10;;;20.30;99.90;23.30;101006.00;;;;5034577;28;20280;-69
2023/08/31 15:46:02;;;;;;;0.10;0.10;;;20.20;99.90;23.60;101007.00;;;;5022989;28;20186;-69
2023/08/31 15:48:30;;;;;;;0.32;0.32;;;20.20;99.90;23.40;100996.00;;;;5034472;28;20182;-69
2023/08/31 15:50:58;;;;;;;0.20;0.20;;;20.20;99.90;23.00;100977.00;;;;5034234;28;20214;-69
2023/08/31 15:53:30;;;;;;;0.70;0.70;;;20.10;99.90;23.90;100983.00;;;;5034187;28;20293;-69
2023/08/31 15:56:01;;;;;;;0.20;0.20;;;20.40;99.90;24.10;100983.00;;;;5035490;28;20194;-68
2023/08/31 15:58:30;;;;;;;0.32;0.32;;;20.50;99.90;24.10;100992.00;;;;5034211;28;20186;-69
2023/08/31 16:01:02;;;;;;;0.40;0.40;;;20.60;99.90;23.30;101003.00;;;;5027513;28;20556;-68
2023/08/31 16:03:35;;;;;;;1.08;1.00;;;20.50;99.90;22.90;100995.00;;;;5025456;28;20190;-69
2023/08/31 16:06:04;;;;;;;0.38;0.38;;;20.20;99.90;23.60;100976.00;;;;5033873;28;20213;-69
2023/08/31 16:08:40;;;;;;;0.10;0.10;;;20.20;99.90;23.00;100975.00;;;;5033982;28;20183;-69
2023/08/31 16:11:06;;;;;;;0.50;0.40;;;20.10;99.90;22.50;100974.00;;;;5033922;28;20186;-69
2023/08/31 16:13:33;;;;;;;1.77;0.60;;;19.90;99.90;24.00;100967.00;;;;5033917;28;20221;-69
2023/08/31 16:16:03;;;;;;;1.85;1.52;;;20.20;99.90;23.00;100994.00;;;;5033741;28;20271;-69
2023/08/31 16:18:34;;;;;;;0.47;0.47;;;20.20;99.90;22.90;100974.00;;;;5035200;28;20214;-69
2023/08/31 16:21:20;;;;;;;0.45;0.45;;;19.90;99.90;22.00;100964.00;;;;5014129;28;20195;-69
2023/08/31 16:23:53;;;;;;;0.20;0.20;;;19.80;99.90;22.50;100954.00;;;;5030196;28;20214;-69
2023/08/31 16:26:27;;;;;;;0.40;0.40;;;19.70;99.90;23.50;100966.00;;;;5033726;28;20724;-70
2023/08/31 16:29:01;;;;;;;0.32;0.30;;;19.90;99.90;22.90;100987.00;;;;5030707;28;20238;-69
2023/08/31 16:31:31;;;;;;;0.30;0.30;;;19.90;99.90;23.30;100952.00;;;;5033885;28;20203;-69
2023/08/31 16:34:03;;;;;;;0.30;0.30;;;19.90;99.90;23.70;100973.00;;;;5016762;28;20657;-68
2023/08/31 16:36:38;;;;;;;0.10;0.10;;;20.00;99.90;22.50;100961.00;;;;5033841;28;20182;-69
2023/08/31 16:39:04;;;;;;;0.10;0.10;;;19.70;99.90;23.10;100927.00;;;;5016774;28;20186;-69
2023/08/31 16:41:34;;;;;;;0.10;0.10;;;19.90;99.90;22.40;100954.00;;;;5033996;28;20233;-69
2023/08/31 16:44:04;;;;;;;0.20;0.20;;;19.60;99.90;22.30;100939.00;;;;5030400;28;20202;-69
2023/08/31 16:46:38;;;;;;;0.10;0.10;;;19.50;99.90;22.70;100949.00;;;;5032705;28;20192;-68
2023/08/31 16:49:09;;;;;;;0.22;0.22;;;19.50;99.90;22.10;100892.00;;;;5033285;28;20182;-69
2023/08/31 16:52:00;;;;;;;0.38;0.38;;;19.40;99.90;23.60;100974.00;;;;5017107;28;20225;-69
2023/08/31 16:54:29;;;;;;;0.50;0.50;;;19.80;99.90;23.30;100980.00;;;;5016566;28;20625;-69
2023/08/31 16:57:04;;;;;;;0.20;0.20;;;20.00;99.90;22.50;100953.00;;;;5015248;28;20584;-69
2023/08/31 16:59:38;;;;;;;0.20;0.20;;;19.70;99.90;23.70;100964.00;;;;5028447;28;20190;-68
2023/08/31 17:02:13;;;;;;;0.52;0.50;;;19.90;99.90;23.60;100963.00;;;;5034521;28;20198;-70
2023/08/31 17:04:47;;;;;;;0.20;0.20;;;20.00;99.90;23.50;100975.00;;;;5016467;28;20273;-70
2023/08/31 17:07:22;;;;;;;0.20;0.20;;;20.00;99.90;23.70;100986.00;;;;5032983;28;20244;-69
2023/08/31 17:10:09;;;;;;;0.47;0.47;;;20.00;99.90;22.20;100979.00;;;;5027244;28;20181;-68
2023/08/31 17:12:49;;;;;;;0.20;0.20;;;19.70;99.90;22.10;100939.00;;;;5029537;28;20202;-69
2023/08/31 17:15:15;;;;;;;0.50;0.50;;;19.30;99.90;21.60;100934.00;;;;5032650;28;20187;-68
2023/08/31 17:17:48;;;;;;;0.30;0.30;;;19.00;99.90;22.20;100932.00;;;;5032957;28;20191;-69
2023/08/31 17:20:38;;;;;;;0.20;0.20;;;19.10;99.90;22.70;100935.00;;;;5032456;28;20190;-69
2023/08/31 17:23:12;;;;;;;0.20;0.20;;;19.20;99.90;21.90;100938.00;;;;5032269;28;20195;-69
2023/08/31 17:25:43;;;;;;;0.30;0.30;;;19.00;99.90;22.80;100944.00;;;;5033911;28;20186;-69
2023/08/31 17:28:09;;;;;;;0.20;0.20;;;19.10;99.90;20.50;100921.00;;;;5033828;28;20286;-70
2023/08/31 17:30:50;;;;;;;0.20;0.20;;;18.60;99.90;21.30;100933.00;;;;5016086;28;20249;-69
2023/08/31 17:33:19;;;;;;;0.20;0.20;;;18.50;99.90;21.40;100933.00;;;;5027958;28;20222;-69
2023/08/31 17:35:44;;;;;;;0.20;0.20;;;18.70;99.90;22.80;100949.00;;;;5032575;28;20193;-69
2023/08/31 17:38:12;;;;;;;0.20;0.20;;;19.00;99.90;22.20;100935.00;;;;5032523;28;20186;-69
2023/08/31 17:40:52;;;;;;;0.20;0.20;;;19.10;99.90;21.80;100938.00;;;;5032063;28;20524;-68
2023/08/31 17:43:21;;;;;;;0.20;0.20;;;18.80;99.90;21.30;100930.00;;;;5032708;28;20237;-69
2023/08/31 17:46:08;;;;;;;0.20;0.20;;;18.50;99.90;22.30;100933.00;;;;5032089;28;20194;-70
2023/08/31 17:48:44;;;;;;;0.52;0.52;;;18.80;99.90;23.00;100939.00;;;;5015059;28;20551;-69
2023/08/31 17:51:33;;;;;;;0.32;0.32;;;19.20;99.90;20.80;100918.00;;;;5031478;28;20425;-68
2023/08/31 17:54:02;;;;;;;0.20;0.20;;;18.50;99.90;21.20;100931.00;;;;5022959;28;20659;-67
2023/08/31 17:56:46;;;;;;;2.05;1.20;;;18.30;99.90;21.40;100941.00;;;;5031888;28;20548;-69
2023/08/31 17:59:27;;;;;;;0.20;0.20;;;18.30;99.90;22.00;100935.00;;;;5031925;28;20718;-69
2023/08/31 18:02:10;;;;;;;0.20;0.20;;;18.50;99.90;20.80;100924.00;;;;5033015;28;20201;-68
2023/08/31 18:04:37;;;;;;;0.98;0.60;;;18.30;99.90;22.10;100940.00;;;;5032126;28;20708;-69
2023/08/31 18:07:07;;;;;;;0.30;0.30;;;18.30;99.90;20.80;100914.00;;;;5031926;28;20190;-68
2023/08/31 18:09:56;;;;;;;0.43;0.43;;;18.10;99.90;20.70;100927.00;;;;5031932;28;20951;-68
2023/08/31 18:12:45;;;;;;;0.20;0.20;;;18.10;99.90;21.40;100922.00;;;;5064470;28;20214;-68
2023/08/31 18:15:23;;;;;;;0.20;0.20;;;18.10;99.90;21.30;100923.00;;;;5031797;28;20182;-67
2023/08/31 18:18:02;;;;;;;0.20;0.20;;;18.10;99.90;21.80;100933.00;;;;5031620;28;20197;-69
2023/08/31 18:20:36;;;;;;;0.30;0.30;;;18.20;99.90;21.80;100942.00;;;;5032034;28;20183;-69
2023/08/31 18:23:03;;;;;;;1.30;1.30;;;18.30;99.90;21.20;100921.00;;;;5031782;28;20186;-68
2023/08/31 18:25:49;;;;;;;0.20;0.20;;;18.10;99.90;20.70;100936.00;;;;5015424;28;20633;-69
2023/08/31 18:28:24;;;;;;;0.20;0.20;;;17.90;99.90;21.90;100924.00;;;;5017570;28;20189;-69
2023/08/31 18:31:06;;;;;;;0.20;0.20;;;18.10;99.90;21.60;100922.00;;;;5031271;28;20197;-69